Terminal Aerodrome Forecast
Issued by NWS

Current Version | Previous Version | Graphics & Text | Print | Product List | Glossary On
Versions: 1 2 3 4 5 6 7 8 9 10 11 12 13 14 15 16 17 18
646
FTUS41 KPBZ 132321
TAFHLG
TAF
KHLG 132321Z 1400/1424 VRB03KT P6SM SCT250
      TEMPO 1410/1413 3SM BR
     FM141600 20005KT P6SM BKN060=

USA.gov is the U.S. government's official web portal to all federal, state and local government web resources and services.